sensor_id;sensor_type;location;lat;lon;timestamp;P1;durP1;ratioP1;P2;durP2;ratioP2
6089;SDS011;3073;42.660;23.316;2022-11-22T00:01:13;3.40;;;2.23;;
6089;SDS011;3073;42.660;23.316;2022-11-22T00:03:40;1.70;;;1.60;;
6089;SDS011;3073;42.660;23.316;2022-11-22T00:06:08;2.03;;;1.87;;
6089;SDS011;3073;42.660;23.316;2022-11-22T00:08:35;2.00;;;1.80;;
6089;SDS011;3073;42.660;23.316;2022-11-22T00:11:02;3.33;;;2.37;;
6089;SDS011;3073;42.660;23.316;2022-11-22T00:13:29;3.43;;;2.53;;
6089;SDS011;3073;42.660;23.316;2022-11-22T00:15:56;2.30;;;2.10;;
6089;SDS011;3073;42.660;23.316;2022-11-22T00:18:24;3.40;;;2.70;;
6089;SDS011;3073;42.660;23.316;2022-11-22T00:20:51;2.93;;;2.63;;
6089;SDS011;3073;42.660;23.316;2022-11-22T00:23:19;3.00;;;2.73;;
6089;SDS011;3073;42.660;23.316;2022-11-22T00:25:47;3.40;;;2.60;;
6089;SDS011;3073;42.660;23.316;2022-11-22T00:28:13;3.63;;;3.33;;
6089;SDS011;3073;42.660;23.316;2022-11-22T00:30:40;3.30;;;3.00;;
6089;SDS011;3073;42.660;23.316;2022-11-22T00:33:07;3.50;;;3.10;;
6089;SDS011;3073;42.660;23.316;2022-11-22T00:35:34;4.13;;;3.30;;
6089;SDS011;3073;42.660;23.316;2022-11-22T00:38:01;2.97;;;2.67;;
6089;SDS011;3073;42.660;23.316;2022-11-22T00:40:29;4.53;;;3.23;;
6089;SDS011;3073;42.660;23.316;2022-11-22T00:42:56;3.83;;;3.30;;
6089;SDS011;3073;42.660;23.316;2022-11-22T00:45:23;3.50;;;3.20;;
6089;SDS011;3073;42.660;23.316;2022-11-22T00:47:49;3.53;;;3.00;;
6089;SDS011;3073;42.660;23.316;2022-11-22T00:50:16;4.70;;;4.10;;
6089;SDS011;3073;42.660;23.316;2022-11-22T00:52:43;4.80;;;3.97;;
6089;SDS011;3073;42.660;23.316;2022-11-22T00:55:10;5.23;;;4.10;;
6089;SDS011;3073;42.660;23.316;2022-11-22T00:57:38;3.83;;;3.43;;
6089;SDS011;3073;42.660;23.316;2022-11-22T01:00:06;4.00;;;3.60;;
6089;SDS011;3073;42.660;23.316;2022-11-22T01:02:34;5.10;;;3.93;;
6089;SDS011;3073;42.660;23.316;2022-11-22T01:05:01;4.50;;;3.90;;
6089;SDS011;3073;42.660;23.316;2022-11-22T01:07:28;4.80;;;4.30;;
6089;SDS011;3073;42.660;23.316;2022-11-22T01:09:55;4.30;;;3.90;;
6089;SDS011;3073;42.660;23.316;2022-11-22T01:12:22;4.30;;;3.90;;
6089;SDS011;3073;42.660;23.316;2022-11-22T01:14:50;4.27;;;3.73;;
6089;SDS011;3073;42.660;23.316;2022-11-22T01:17:17;4.40;;;3.67;;
6089;SDS011;3073;42.660;23.316;2022-11-22T01:19:44;4.87;;;4.07;;
6089;SDS011;3073;42.660;23.316;2022-11-22T01:22:11;4.20;;;3.80;;
6089;SDS011;3073;42.660;23.316;2022-11-22T01:24:38;3.57;;;3.27;;
6089;SDS011;3073;42.660;23.316;2022-11-22T01:27:05;4.23;;;3.83;;
6089;SDS011;3073;42.660;23.316;2022-11-22T01:29:32;4.43;;;4.00;;
6089;SDS011;3073;42.660;23.316;2022-11-22T01:32:00;4.37;;;3.60;;
6089;SDS011;3073;42.660;23.316;2022-11-22T01:34:27;4.57;;;3.97;;
6089;SDS011;3073;42.660;23.316;2022-11-22T01:36:54;6.23;;;3.87;;
6089;SDS011;3073;42.660;23.316;2022-11-22T01:39:21;5.33;;;4.10;;
6089;SDS011;3073;42.660;23.316;2022-11-22T01:41:47;4.30;;;3.90;;
6089;SDS011;3073;42.660;23.316;2022-11-22T01:44:21;5.00;;;4.50;;
6089;SDS011;3073;42.660;23.316;2022-11-22T01:46:50;4.43;;;3.93;;
6089;SDS011;3073;42.660;23.316;2022-11-22T01:49:22;7.27;;;4.40;;
6089;SDS011;3073;42.660;23.316;2022-11-22T01:51:53;5.80;;;4.53;;
6089;SDS011;3073;42.660;23.316;2022-11-22T01:54:24;9.53;;;4.73;;
6089;SDS011;3073;42.660;23.316;2022-11-22T01:56:55;5.73;;;4.37;;
6089;SDS011;3073;42.660;23.316;2022-11-22T01:59:28;5.80;;;4.60;;
6089;SDS011;3073;42.660;23.316;2022-11-22T02:01:58;6.90;;;5.43;;
6089;SDS011;3073;42.660;23.316;2022-11-22T02:04:28;5.33;;;4.73;;
6089;SDS011;3073;42.660;23.316;2022-11-22T02:06:58;5.57;;;4.67;;
6089;SDS011;3073;42.660;23.316;2022-11-22T02:09:31;4.70;;;4.03;;
6089;SDS011;3073;42.660;23.316;2022-11-22T02:11:59;5.53;;;4.90;;
6089;SDS011;3073;42.660;23.316;2022-11-22T02:14:27;6.50;;;5.33;;
6089;SDS011;3073;42.660;23.316;2022-11-22T02:16:56;6.80;;;4.63;;
6089;SDS011;3073;42.660;23.316;2022-11-22T02:19:25;5.00;;;4.47;;
6089;SDS011;3073;42.660;23.316;2022-11-22T02:22:05;5.40;;;4.43;;
6089;SDS011;3073;42.660;23.316;2022-11-22T02:24:40;7.47;;;5.60;;
6089;SDS011;3073;42.660;23.316;2022-11-22T02:27:12;7.50;;;4.70;;
6089;SDS011;3073;42.660;23.316;2022-11-22T02:29:40;5.50;;;5.00;;
6089;SDS011;3073;42.660;23.316;2022-11-22T02:32:09;9.83;;;4.60;;
6089;SDS011;3073;42.660;23.316;2022-11-22T02:34:42;6.20;;;4.70;;
6089;SDS011;3073;42.660;23.316;2022-11-22T02:37:10;5.40;;;4.70;;
6089;SDS011;3073;42.660;23.316;2022-11-22T02:39:41;5.90;;;4.80;;
6089;SDS011;3073;42.660;23.316;2022-11-22T02:42:11;4.80;;;4.30;;
6089;SDS011;3073;42.660;23.316;2022-11-22T02:44:39;5.83;;;4.60;;
6089;SDS011;3073;42.660;23.316;2022-11-22T02:47:07;5.70;;;5.10;;
6089;SDS011;3073;42.660;23.316;2022-11-22T02:49:34;8.07;;;5.20;;
6089;SDS011;3073;42.660;23.316;2022-11-22T02:52:01;5.40;;;4.70;;
6089;SDS011;3073;42.660;23.316;2022-11-22T02:54:28;6.50;;;4.93;;
6089;SDS011;3073;42.660;23.316;2022-11-22T02:56:55;6.33;;;5.33;;
6089;SDS011;3073;42.660;23.316;2022-11-22T02:59:26;8.00;;;4.63;;
6089;SDS011;3073;42.660;23.316;2022-11-22T03:01:53;8.00;;;4.57;;
6089;SDS011;3073;42.660;23.316;2022-11-22T03:04:20;7.20;;;5.70;;
6089;SDS011;3073;42.660;23.316;2022-11-22T03:06:50;6.30;;;5.10;;
6089;SDS011;3073;42.660;23.316;2022-11-22T03:09:24;7.33;;;5.60;;
6089;SDS011;3073;42.660;23.316;2022-11-22T03:11:52;6.70;;;5.40;;
6089;SDS011;3073;42.660;23.316;2022-11-22T03:14:19;6.33;;;4.57;;
6089;SDS011;3073;42.660;23.316;2022-11-22T03:16:48;8.10;;;5.07;;
6089;SDS011;3073;42.660;23.316;2022-11-22T03:19:15;8.00;;;5.10;;
6089;SDS011;3073;42.660;23.316;2022-11-22T03:21:42;14.00;;;5.30;;
6089;SDS011;3073;42.660;23.316;2022-11-22T03:24:09;8.90;;;5.20;;
6089;SDS011;3073;42.660;23.316;2022-11-22T03:26:38;8.63;;;5.73;;
6089;SDS011;3073;42.660;23.316;2022-11-22T03:29:05;8.00;;;5.70;;
6089;SDS011;3073;42.660;23.316;2022-11-22T03:31:34;6.60;;;5.30;;
6089;SDS011;3073;42.660;23.316;2022-11-22T03:34:02;8.70;;;5.67;;
6089;SDS011;3073;42.660;23.316;2022-11-22T03:36:29;6.83;;;5.83;;
6089;SDS011;3073;42.660;23.316;2022-11-22T03:38:57;9.90;;;6.07;;
6089;SDS011;3073;42.660;23.316;2022-11-22T03:41:24;8.80;;;4.97;;
6089;SDS011;3073;42.660;23.316;2022-11-22T03:43:51;7.50;;;5.20;;
6089;SDS011;3073;42.660;23.316;2022-11-22T03:46:19;6.27;;;5.00;;
6089;SDS011;3073;42.660;23.316;2022-11-22T03:48:46;7.80;;;5.00;;
6089;SDS011;3073;42.660;23.316;2022-11-22T03:51:14;7.70;;;4.70;;
6089;SDS011;3073;42.660;23.316;2022-11-22T03:53:41;8.30;;;5.17;;
6089;SDS011;3073;42.660;23.316;2022-11-22T03:56:08;8.73;;;5.60;;
6089;SDS011;3073;42.660;23.316;2022-11-22T03:58:35;7.97;;;5.83;;
6089;SDS011;3073;42.660;23.316;2022-11-22T04:01:02;12.23;;;7.13;;
6089;SDS011;3073;42.660;23.316;2022-11-22T04:03:29;6.83;;;6.10;;
6089;SDS011;3073;42.660;23.316;2022-11-22T04:05:56;11.10;;;5.60;;
6089;SDS011;3073;42.660;23.316;2022-11-22T04:08:24;7.80;;;6.00;;
6089;SDS011;3073;42.660;23.316;2022-11-22T04:10:51;8.63;;;6.03;;
6089;SDS011;3073;42.660;23.316;2022-11-22T04:13:18;9.50;;;6.43;;
6089;SDS011;3073;42.660;23.316;2022-11-22T04:15:46;9.53;;;6.77;;
6089;SDS011;3073;42.660;23.316;2022-11-22T04:18:12;10.57;;;7.23;;
6089;SDS011;3073;42.660;23.316;2022-11-22T04:20:39;9.70;;;6.73;;
6089;SDS011;3073;42.660;23.316;2022-11-22T04:23:25;11.30;;;6.80;;
6089;SDS011;3073;42.660;23.316;2022-11-22T04:25:53;10.13;;;7.00;;
6089;SDS011;3073;42.660;23.316;2022-11-22T04:28:20;11.73;;;7.00;;
6089;SDS011;3073;42.660;23.316;2022-11-22T04:30:48;10.00;;;7.43;;
6089;SDS011;3073;42.660;23.316;2022-11-22T04:33:33;7.90;;;6.43;;
6089;SDS011;3073;42.660;23.316;2022-11-22T04:36:00;9.53;;;7.10;;
6089;SDS011;3073;42.660;23.316;2022-11-22T04:38:28;8.90;;;6.50;;
6089;SDS011;3073;42.660;23.316;2022-11-22T04:40:55;12.33;;;7.50;;
6089;SDS011;3073;42.660;23.316;2022-11-22T04:43:22;11.10;;;7.97;;
6089;SDS011;3073;42.660;23.316;2022-11-22T04:46:08;16.87;;;9.10;;
6089;SDS011;3073;42.660;23.316;2022-11-22T04:48:37;27.50;;;7.87;;
6089;SDS011;3073;42.660;23.316;2022-11-22T04:51:04;9.30;;;6.90;;
6089;SDS011;3073;42.660;23.316;2022-11-22T04:53:51;18.67;;;8.07;;
6089;SDS011;3073;42.660;23.316;2022-11-22T04:56:18;14.33;;;7.70;;
6089;SDS011;3073;42.660;23.316;2022-11-22T04:58:45;17.10;;;8.40;;
6089;SDS011;3073;42.660;23.316;2022-11-22T05:01:15;12.90;;;7.70;;
6089;SDS011;3073;42.660;23.316;2022-11-22T05:03:42;13.30;;;8.73;;
6089;SDS011;3073;42.660;23.316;2022-11-22T05:06:09;23.40;;;8.27;;
6089;SDS011;3073;42.660;23.316;2022-11-22T05:08:39;16.60;;;8.50;;
6089;SDS011;3073;42.660;23.316;2022-11-22T05:11:07;17.33;;;8.30;;
6089;SDS011;3073;42.660;23.316;2022-11-22T05:13:35;15.53;;;7.90;;
6089;SDS011;3073;42.660;23.316;2022-11-22T05:16:03;15.23;;;7.70;;
6089;SDS011;3073;42.660;23.316;2022-11-22T05:18:31;11.40;;;7.93;;
6089;SDS011;3073;42.660;23.316;2022-11-22T05:21:02;11.80;;;7.63;;
6089;SDS011;3073;42.660;23.316;2022-11-22T05:23:30;10.87;;;7.30;;
6089;SDS011;3073;42.660;23.316;2022-11-22T05:26:16;11.60;;;7.83;;
6089;SDS011;3073;42.660;23.316;2022-11-22T05:28:43;11.53;;;7.83;;
6089;SDS011;3073;42.660;23.316;2022-11-22T05:31:11;8.57;;;6.03;;
6089;SDS011;3073;42.660;23.316;2022-11-22T05:33:40;9.10;;;5.80;;
6089;SDS011;3073;42.660;23.316;2022-11-22T05:36:08;7.37;;;6.07;;
6089;SDS011;3073;42.660;23.316;2022-11-22T05:38:36;10.37;;;6.47;;
6089;SDS011;3073;42.660;23.316;2022-11-22T05:41:04;10.53;;;6.73;;
6089;SDS011;3073;42.660;23.316;2022-11-22T05:43:35;11.70;;;6.97;;
6089;SDS011;3073;42.660;23.316;2022-11-22T05:46:06;12.63;;;8.60;;
6089;SDS011;3073;42.660;23.316;2022-11-22T05:48:34;18.43;;;7.40;;
6089;SDS011;3073;42.660;23.316;2022-11-22T05:51:04;13.10;;;9.03;;
6089;SDS011;3073;42.660;23.316;2022-11-22T05:53:32;12.17;;;7.67;;
6089;SDS011;3073;42.660;23.316;2022-11-22T05:56:02;11.57;;;7.20;;
6089;SDS011;3073;42.660;23.316;2022-11-22T05:58:30;14.37;;;8.10;;
6089;SDS011;3073;42.660;23.316;2022-11-22T06:01:02;15.50;;;10.47;;
6089;SDS011;3073;42.660;23.316;2022-11-22T06:03:30;10.87;;;7.50;;
6089;SDS011;3073;42.660;23.316;2022-11-22T06:05:57;9.23;;;7.47;;
6089;SDS011;3073;42.660;23.316;2022-11-22T06:08:27;12.90;;;7.10;;
6089;SDS011;3073;42.660;23.316;2022-11-22T06:10:54;12.93;;;8.87;;
6089;SDS011;3073;42.660;23.316;2022-11-22T06:13:23;12.40;;;8.20;;
6089;SDS011;3073;42.660;23.316;2022-11-22T06:15:50;13.50;;;8.00;;
6089;SDS011;3073;42.660;23.316;2022-11-22T06:18:18;8.87;;;7.23;;
6089;SDS011;3073;42.660;23.316;2022-11-22T06:20:45;11.30;;;7.53;;
6089;SDS011;3073;42.660;23.316;2022-11-22T06:23:13;9.13;;;7.40;;
6089;SDS011;3073;42.660;23.316;2022-11-22T06:25:40;17.00;;;8.27;;
6089;SDS011;3073;42.660;23.316;2022-11-22T06:28:07;13.50;;;7.70;;
6089;SDS011;3073;42.660;23.316;2022-11-22T06:30:34;9.97;;;7.13;;
6089;SDS011;3073;42.660;23.316;2022-11-22T06:33:01;11.53;;;7.00;;
6089;SDS011;3073;42.660;23.316;2022-11-22T06:35:30;9.80;;;7.17;;
6089;SDS011;3073;42.660;23.316;2022-11-22T06:37:56;10.70;;;7.47;;
6089;SDS011;3073;42.660;23.316;2022-11-22T06:40:23;16.50;;;9.47;;
6089;SDS011;3073;42.660;23.316;2022-11-22T06:42:50;12.73;;;8.47;;
6089;SDS011;3073;42.660;23.316;2022-11-22T06:45:17;12.73;;;8.63;;
6089;SDS011;3073;42.660;23.316;2022-11-22T06:47:44;10.17;;;6.57;;
6089;SDS011;3073;42.660;23.316;2022-11-22T06:50:11;9.90;;;7.40;;
6089;SDS011;3073;42.660;23.316;2022-11-22T06:52:39;10.97;;;8.20;;
6089;SDS011;3073;42.660;23.316;2022-11-22T06:55:06;20.80;;;7.43;;
6089;SDS011;3073;42.660;23.316;2022-11-22T06:57:33;11.77;;;7.90;;
6089;SDS011;3073;42.660;23.316;2022-11-22T07:00:00;13.03;;;8.00;;
6089;SDS011;3073;42.660;23.316;2022-11-22T07:02:27;20.10;;;11.63;;
6089;SDS011;3073;42.660;23.316;2022-11-22T07:04:54;21.30;;;12.47;;
6089;SDS011;3073;42.660;23.316;2022-11-22T07:07:21;20.80;;;11.30;;
6089;SDS011;3073;42.660;23.316;2022-11-22T07:09:52;15.67;;;10.93;;
6089;SDS011;3073;42.660;23.316;2022-11-22T07:12:20;24.37;;;11.13;;
6089;SDS011;3073;42.660;23.316;2022-11-22T07:14:46;14.30;;;10.20;;
6089;SDS011;3073;42.660;23.316;2022-11-22T07:17:13;12.30;;;8.90;;
6089;SDS011;3073;42.660;23.316;2022-11-22T07:19:40;11.63;;;8.87;;
6089;SDS011;3073;42.660;23.316;2022-11-22T07:22:07;13.00;;;9.00;;
6089;SDS011;3073;42.660;23.316;2022-11-22T07:24:34;16.53;;;9.17;;
6089;SDS011;3073;42.660;23.316;2022-11-22T07:27:02;13.37;;;8.83;;
6089;SDS011;3073;42.660;23.316;2022-11-22T07:29:31;12.20;;;8.70;;
6089;SDS011;3073;42.660;23.316;2022-11-22T07:31:58;12.77;;;8.50;;
6089;SDS011;3073;42.660;23.316;2022-11-22T07:34:25;11.63;;;7.47;;
6089;SDS011;3073;42.660;23.316;2022-11-22T07:36:53;11.63;;;7.90;;
6089;SDS011;3073;42.660;23.316;2022-11-22T07:39:20;14.70;;;8.53;;
6089;SDS011;3073;42.660;23.316;2022-11-22T07:41:47;13.93;;;9.70;;
6089;SDS011;3073;42.660;23.316;2022-11-22T07:44:15;14.43;;;8.90;;
6089;SDS011;3073;42.660;23.316;2022-11-22T07:46:42;10.73;;;7.43;;
6089;SDS011;3073;42.660;23.316;2022-11-22T07:49:09;15.80;;;8.67;;
6089;SDS011;3073;42.660;23.316;2022-11-22T07:51:36;14.60;;;8.90;;
6089;SDS011;3073;42.660;23.316;2022-11-22T07:54:03;9.93;;;7.30;;
6089;SDS011;3073;42.660;23.316;2022-11-22T07:56:30;13.87;;;9.23;;
6089;SDS011;3073;42.660;23.316;2022-11-22T07:58:57;15.33;;;8.10;;
6089;SDS011;3073;42.660;23.316;2022-11-22T08:01:26;12.13;;;8.50;;
6089;SDS011;3073;42.660;23.316;2022-11-22T08:03:53;8.73;;;7.20;;
6089;SDS011;3073;42.660;23.316;2022-11-22T08:06:21;16.10;;;8.40;;
6089;SDS011;3073;42.660;23.316;2022-11-22T08:08:48;14.33;;;7.97;;
6089;SDS011;3073;42.660;23.316;2022-11-22T08:11:15;11.53;;;7.77;;
6089;SDS011;3073;42.660;23.316;2022-11-22T08:13:42;11.67;;;9.00;;
6089;SDS011;3073;42.660;23.316;2022-11-22T08:16:10;11.20;;;7.73;;
6089;SDS011;3073;42.660;23.316;2022-11-22T08:18:44;12.77;;;8.30;;
6089;SDS011;3073;42.660;23.316;2022-11-22T08:21:12;18.73;;;11.03;;
6089;SDS011;3073;42.660;23.316;2022-11-22T08:23:39;17.70;;;8.37;;
6089;SDS011;3073;42.660;23.316;2022-11-22T08:26:08;26.13;;;10.20;;
6089;SDS011;3073;42.660;23.316;2022-11-22T08:28:36;17.90;;;11.60;;
6089;SDS011;3073;42.660;23.316;2022-11-22T08:31:04;14.90;;;9.80;;
6089;SDS011;3073;42.660;23.316;2022-11-22T08:33:37;16.20;;;10.57;;
6089;SDS011;3073;42.660;23.316;2022-11-22T08:36:07;16.50;;;9.77;;
6089;SDS011;3073;42.660;23.316;2022-11-22T08:38:34;17.27;;;10.93;;
6089;SDS011;3073;42.660;23.316;2022-11-22T08:41:02;17.10;;;11.53;;
6089;SDS011;3073;42.660;23.316;2022-11-22T08:43:29;23.77;;;12.60;;
6089;SDS011;3073;42.660;23.316;2022-11-22T08:45:57;17.33;;;11.53;;
6089;SDS011;3073;42.660;23.316;2022-11-22T08:48:26;17.30;;;10.50;;
6089;SDS011;3073;42.660;23.316;2022-11-22T08:50:56;21.83;;;10.90;;
6089;SDS011;3073;42.660;23.316;2022-11-22T08:53:26;23.90;;;11.10;;
6089;SDS011;3073;42.660;23.316;2022-11-22T08:55:54;18.00;;;11.27;;
6089;SDS011;3073;42.660;23.316;2022-11-22T08:58:21;15.53;;;9.60;;
6089;SDS011;3073;42.660;23.316;2022-11-22T09:00:48;18.70;;;11.07;;
6089;SDS011;3073;42.660;23.316;2022-11-22T09:03:15;23.20;;;12.03;;
6089;SDS011;3073;42.660;23.316;2022-11-22T09:05:42;16.40;;;10.33;;
6089;SDS011;3073;42.660;23.316;2022-11-22T09:08:09;18.47;;;10.97;;
6089;SDS011;3073;42.660;23.316;2022-11-22T09:10:37;16.00;;;9.27;;
6089;SDS011;3073;42.660;23.316;2022-11-22T09:13:04;18.10;;;10.67;;
6089;SDS011;3073;42.660;23.316;2022-11-22T09:15:31;23.93;;;11.40;;
6089;SDS011;3073;42.660;23.316;2022-11-22T09:17:59;22.43;;;12.77;;
6089;SDS011;3073;42.660;23.316;2022-11-22T09:20:27;22.80;;;12.43;;
6089;SDS011;3073;42.660;23.316;2022-11-22T09:22:55;23.13;;;14.60;;
6089;SDS011;3073;42.660;23.316;2022-11-22T09:25:22;16.50;;;11.47;;
6089;SDS011;3073;42.660;23.316;2022-11-22T09:27:50;15.53;;;10.80;;
6089;SDS011;3073;42.660;23.316;2022-11-22T09:30:17;18.33;;;10.20;;
6089;SDS011;3073;42.660;23.316;2022-11-22T09:32:45;14.93;;;9.93;;
6089;SDS011;3073;42.660;23.316;2022-11-22T09:35:12;20.53;;;11.03;;
6089;SDS011;3073;42.660;23.316;2022-11-22T09:37:41;17.33;;;10.73;;
6089;SDS011;3073;42.660;23.316;2022-11-22T09:40:09;15.67;;;11.10;;
6089;SDS011;3073;42.660;23.316;2022-11-22T09:45:48;13.20;;;9.40;;
6089;SDS011;3073;42.660;23.316;2022-11-22T09:48:33;15.40;;;10.00;;
6089;SDS011;3073;42.660;23.316;2022-11-22T09:51:09;13.77;;;9.83;;
6089;SDS011;3073;42.660;23.316;2022-11-22T09:53:41;13.93;;;9.57;;
6089;SDS011;3073;42.660;23.316;2022-11-22T09:56:14;17.00;;;10.13;;
6089;SDS011;3073;42.660;23.316;2022-11-22T09:58:45;24.00;;;10.73;;
6089;SDS011;3073;42.660;23.316;2022-11-22T10:01:16;16.70;;;9.60;;
6089;SDS011;3073;42.660;23.316;2022-11-22T10:03:50;21.23;;;10.70;;
6089;SDS011;3073;42.660;23.316;2022-11-22T10:06:23;17.43;;;10.27;;
6089;SDS011;3073;42.660;23.316;2022-11-22T10:08:59;18.07;;;10.63;;
6089;SDS011;3073;42.660;23.316;2022-11-22T10:11:35;18.43;;;11.17;;
6089;SDS011;3073;42.660;23.316;2022-11-22T10:14:13;25.30;;;14.00;;
6089;SDS011;3073;42.660;23.316;2022-11-22T10:16:54;24.83;;;11.53;;
6089;SDS011;3073;42.660;23.316;2022-11-22T10:19:26;15.20;;;10.50;;
6089;SDS011;3073;42.660;23.316;2022-11-22T10:22:01;13.50;;;10.10;;
6089;SDS011;3073;42.660;23.316;2022-11-22T10:24:27;19.50;;;10.30;;
6089;SDS011;3073;42.660;23.316;2022-11-22T10:26:55;15.77;;;10.77;;
6089;SDS011;3073;42.660;23.316;2022-11-22T10:29:28;21.63;;;11.77;;
6089;SDS011;3073;42.660;23.316;2022-11-22T10:32:06;18.90;;;9.43;;
6089;SDS011;3073;42.660;23.316;2022-11-22T10:34:44;13.00;;;9.17;;
6089;SDS011;3073;42.660;23.316;2022-11-22T10:37:23;21.43;;;10.20;;
6089;SDS011;3073;42.660;23.316;2022-11-22T10:40:02;17.97;;;10.20;;
6089;SDS011;3073;42.660;23.316;2022-11-22T10:42:44;14.77;;;9.00;;
6089;SDS011;3073;42.660;23.316;2022-11-22T10:45:23;17.90;;;10.70;;
6089;SDS011;3073;42.660;23.316;2022-11-22T10:47:55;19.23;;;9.37;;
6089;SDS011;3073;42.660;23.316;2022-11-22T10:50:35;23.80;;;9.07;;
6089;SDS011;3073;42.660;23.316;2022-11-22T10:53:21;13.00;;;8.80;;
6089;SDS011;3073;42.660;23.316;2022-11-22T10:55:57;16.30;;;9.93;;
6089;SDS011;3073;42.660;23.316;2022-11-22T10:58:33;17.27;;;10.30;;
6089;SDS011;3073;42.660;23.316;2022-11-22T11:01:12;14.97;;;10.47;;
6089;SDS011;3073;42.660;23.316;2022-11-22T11:03:47;14.60;;;11.30;;
6089;SDS011;3073;42.660;23.316;2022-11-22T11:06:20;17.33;;;11.80;;
6089;SDS011;3073;42.660;23.316;2022-11-22T11:08:51;24.03;;;10.83;;
6089;SDS011;3073;42.660;23.316;2022-11-22T11:11:23;14.60;;;10.40;;
6089;SDS011;3073;42.660;23.316;2022-11-22T11:13:52;21.20;;;10.43;;
6089;SDS011;3073;42.660;23.316;2022-11-22T11:16:25;16.30;;;10.83;;
6089;SDS011;3073;42.660;23.316;2022-11-22T11:19:00;18.60;;;10.00;;
6089;SDS011;3073;42.660;23.316;2022-11-22T11:21:38;15.10;;;10.30;;
6089;SDS011;3073;42.660;23.316;2022-11-22T11:24:05;21.03;;;10.60;;
6089;SDS011;3073;42.660;23.316;2022-11-22T11:26:40;14.13;;;9.93;;
6089;SDS011;3073;42.660;23.316;2022-11-22T11:29:31;19.03;;;10.87;;
6089;SDS011;3073;42.660;23.316;2022-11-22T11:32:08;16.57;;;11.07;;
6089;SDS011;3073;42.660;23.316;2022-11-22T11:34:40;14.50;;;9.67;;
6089;SDS011;3073;42.660;23.316;2022-11-22T11:37:17;19.47;;;10.17;;
6089;SDS011;3073;42.660;23.316;2022-11-22T11:39:48;21.93;;;10.20;;
6089;SDS011;3073;42.660;23.316;2022-11-22T11:42:22;26.63;;;11.23;;
6089;SDS011;3073;42.660;23.316;2022-11-22T11:44:52;20.00;;;11.50;;
6089;SDS011;3073;42.660;23.316;2022-11-22T11:47:31;20.50;;;10.80;;
6089;SDS011;3073;42.660;23.316;2022-11-22T11:50:00;20.77;;;10.40;;
6089;SDS011;3073;42.660;23.316;2022-11-22T11:52:29;22.33;;;10.77;;
6089;SDS011;3073;42.660;23.316;2022-11-22T11:54:57;15.33;;;10.17;;
6089;SDS011;3073;42.660;23.316;2022-11-22T11:57:27;14.23;;;9.83;;
6089;SDS011;3073;42.660;23.316;2022-11-22T11:59:57;18.60;;;10.33;;
6089;SDS011;3073;42.660;23.316;2022-11-22T12:02:27;19.50;;;10.23;;
6089;SDS011;3073;42.660;23.316;2022-11-22T12:05:01;18.10;;;11.00;;
6089;SDS011;3073;42.660;23.316;2022-11-22T12:07:37;16.13;;;10.30;;
6089;SDS011;3073;42.660;23.316;2022-11-22T12:12:54;19.33;;;10.80;;
6089;SDS011;3073;42.660;23.316;2022-11-22T12:15:29;17.03;;;10.80;;
6089;SDS011;3073;42.660;23.316;2022-11-22T12:18:10;17.77;;;11.60;;
6089;SDS011;3073;42.660;23.316;2022-11-22T12:20:45;19.53;;;12.40;;
6089;SDS011;3073;42.660;23.316;2022-11-22T12:23:19;18.27;;;11.73;;
6089;SDS011;3073;42.660;23.316;2022-11-22T12:25:50;20.80;;;12.53;;
6089;SDS011;3073;42.660;23.316;2022-11-22T12:28:22;21.63;;;14.27;;
6089;SDS011;3073;42.660;23.316;2022-11-22T12:30:51;20.03;;;11.63;;
6089;SDS011;3073;42.660;23.316;2022-11-22T12:33:25;16.63;;;11.40;;
6089;SDS011;3073;42.660;23.316;2022-11-22T12:35:56;17.00;;;11.90;;
6089;SDS011;3073;42.660;23.316;2022-11-22T12:38:25;33.13;;;17.13;;
6089;SDS011;3073;42.660;23.316;2022-11-22T12:40:55;21.77;;;12.97;;
6089;SDS011;3073;42.660;23.316;2022-11-22T12:43:26;27.13;;;14.97;;
6089;SDS011;3073;42.660;23.316;2022-11-22T12:45:58;26.60;;;12.83;;
6089;SDS011;3073;42.660;23.316;2022-11-22T12:48:29;29.63;;;13.20;;
6089;SDS011;3073;42.660;23.316;2022-11-22T12:51:02;19.83;;;12.07;;
6089;SDS011;3073;42.660;23.316;2022-11-22T12:53:33;21.57;;;13.70;;
6089;SDS011;3073;42.660;23.316;2022-11-22T12:56:04;29.60;;;14.13;;
6089;SDS011;3073;42.660;23.316;2022-11-22T12:58:43;21.03;;;12.60;;
6089;SDS011;3073;42.660;23.316;2022-11-22T13:01:18;26.40;;;13.70;;
6089;SDS011;3073;42.660;23.316;2022-11-22T13:03:52;27.30;;;17.27;;
6089;SDS011;3073;42.660;23.316;2022-11-22T13:06:23;38.53;;;18.93;;
6089;SDS011;3073;42.660;23.316;2022-11-22T13:08:54;27.47;;;18.03;;
6089;SDS011;3073;42.660;23.316;2022-11-22T13:11:26;33.60;;;20.87;;
6089;SDS011;3073;42.660;23.316;2022-11-22T13:13:57;32.20;;;19.40;;
6089;SDS011;3073;42.660;23.316;2022-11-22T13:16:31;35.10;;;20.40;;
6089;SDS011;3073;42.660;23.316;2022-11-22T13:19:02;33.50;;;17.10;;
6089;SDS011;3073;42.660;23.316;2022-11-22T13:21:35;36.13;;;18.00;;
6089;SDS011;3073;42.660;23.316;2022-11-22T13:24:15;26.97;;;16.83;;
6089;SDS011;3073;42.660;23.316;2022-11-22T13:27:05;31.50;;;19.77;;
6089;SDS011;3073;42.660;23.316;2022-11-22T13:29:39;37.30;;;20.00;;
6089;SDS011;3073;42.660;23.316;2022-11-22T13:32:15;32.30;;;19.60;;
6089;SDS011;3073;42.660;23.316;2022-11-22T13:37:51;29.30;;;18.93;;
6089;SDS011;3073;42.660;23.316;2022-11-22T13:40:22;36.60;;;20.33;;
6089;SDS011;3073;42.660;23.316;2022-11-22T13:46:00;32.50;;;18.30;;
6089;SDS011;3073;42.660;23.316;2022-11-22T13:51:51;30.10;;;17.30;;
6089;SDS011;3073;42.660;23.316;2022-11-22T13:57:27;27.37;;;16.53;;
6089;SDS011;3073;42.660;23.316;2022-11-22T14:02:53;26.63;;;16.27;;
6089;SDS011;3073;42.660;23.316;2022-11-22T14:05:36;36.57;;;17.27;;
6089;SDS011;3073;42.660;23.316;2022-11-22T14:08:17;25.73;;;15.60;;
6089;SDS011;3073;42.660;23.316;2022-11-22T14:11:00;30.93;;;16.97;;
6089;SDS011;3073;42.660;23.316;2022-11-22T14:13:36;29.03;;;15.10;;
6089;SDS011;3073;42.660;23.316;2022-11-22T14:19:22;29.47;;;15.30;;
6089;SDS011;3073;42.660;23.316;2022-11-22T14:22:05;22.73;;;14.30;;
6089;SDS011;3073;42.660;23.316;2022-11-22T14:24:47;24.63;;;15.07;;
6089;SDS011;3073;42.660;23.316;2022-11-22T14:27:26;28.23;;;16.03;;
6089;SDS011;3073;42.660;23.316;2022-11-22T14:30:06;28.67;;;16.70;;
6089;SDS011;3073;42.660;23.316;2022-11-22T14:32:49;26.60;;;15.40;;
6089;SDS011;3073;42.660;23.316;2022-11-22T14:35:21;29.07;;;15.80;;
6089;SDS011;3073;42.660;23.316;2022-11-22T14:37:57;33.50;;;18.60;;
6089;SDS011;3073;42.660;23.316;2022-11-22T14:40:39;32.63;;;16.80;;
6089;SDS011;3073;42.660;23.316;2022-11-22T14:43:27;35.07;;;19.57;;
6089;SDS011;3073;42.660;23.316;2022-11-22T14:45:58;31.00;;;19.03;;
6089;SDS011;3073;42.660;23.316;2022-11-22T14:48:29;33.63;;;19.30;;
6089;SDS011;3073;42.660;23.316;2022-11-22T14:51:00;37.97;;;21.90;;
6089;SDS011;3073;42.660;23.316;2022-11-22T14:53:35;30.27;;;19.00;;
6089;SDS011;3073;42.660;23.316;2022-11-22T14:56:11;34.87;;;19.17;;
6089;SDS011;3073;42.660;23.316;2022-11-22T14:58:42;44.27;;;26.20;;
6089;SDS011;3073;42.660;23.316;2022-11-22T15:01:25;46.47;;;26.97;;
6089;SDS011;3073;42.660;23.316;2022-11-22T15:04:16;41.87;;;25.47;;
6089;SDS011;3073;42.660;23.316;2022-11-22T15:07:07;24.30;;;13.50;;
6089;SDS011;3073;42.660;23.316;2022-11-22T15:10:01;25.60;;;13.40;;
6089;SDS011;3073;42.660;23.316;2022-11-22T15:15:35;16.13;;;9.53;;
6089;SDS011;3073;42.660;23.316;2022-11-22T15:18:06;15.70;;;8.03;;
6089;SDS011;3073;42.660;23.316;2022-11-22T15:20:42;18.57;;;8.00;;
6089;SDS011;3073;42.660;23.316;2022-11-22T15:23:14;11.70;;;7.10;;
6089;SDS011;3073;42.660;23.316;2022-11-22T15:25:44;12.77;;;7.37;;
6089;SDS011;3073;42.660;23.316;2022-11-22T15:28:14;6.97;;;4.90;;
6089;SDS011;3073;42.660;23.316;2022-11-22T15:30:44;6.00;;;4.93;;
6089;SDS011;3073;42.660;23.316;2022-11-22T15:33:20;9.20;;;5.43;;
6089;SDS011;3073;42.660;23.316;2022-11-22T15:36:02;11.07;;;5.67;;